sensor_id;sensor_type;location;lat;lon;timestamp;P1;durP1;ratioP1;P2;durP2;ratioP2
32611;SDS011;19030;49.478;8.986;2024-01-27T00:00:15;9.02;;;4.43;;
32611;SDS011;19030;49.478;8.986;2024-01-27T00:02:16;12.43;;;5.85;;
32611;SDS011;19030;49.478;8.986;2024-01-27T00:04:16;11.40;;;4.97;;
32611;SDS011;19030;49.478;8.986;2024-01-27T00:06:17;10.07;;;4.35;;
32611;SDS011;19030;49.478;8.986;2024-01-27T00:08:17;14.02;;;4.90;;
32611;SDS011;19030;49.478;8.986;2024-01-27T00:10:18;8.10;;;4.65;;
32611;SDS011;19030;49.478;8.986;2024-01-27T00:12:22;9.95;;;5.10;;
32611;SDS011;19030;49.478;8.986;2024-01-27T00:14:23;13.40;;;6.63;;
32611;SDS011;19030;49.478;8.986;2024-01-27T00:16:23;13.82;;;5.95;;
32611;SDS011;19030;49.478;8.986;2024-01-27T00:18:24;11.00;;;5.85;;
32611;SDS011;19030;49.478;8.986;2024-01-27T00:20:24;13.50;;;5.68;;
32611;SDS011;19030;49.478;8.986;2024-01-27T00:22:25;16.33;;;5.65;;
32611;SDS011;19030;49.478;8.986;2024-01-27T00:24:25;12.95;;;5.65;;
32611;SDS011;19030;49.478;8.986;2024-01-27T00:26:26;13.15;;;5.18;;
32611;SDS011;19030;49.478;8.986;2024-01-27T00:28:28;13.95;;;5.18;;
32611;SDS011;19030;49.478;8.986;2024-01-27T00:30:28;15.85;;;5.32;;
32611;SDS011;19030;49.478;8.986;2024-01-27T00:32:29;11.15;;;5.40;;
32611;SDS011;19030;49.478;8.986;2024-01-27T00:34:29;8.73;;;5.22;;
32611;SDS011;19030;49.478;8.986;2024-01-27T00:36:30;19.25;;;6.93;;
32611;SDS011;19030;49.478;8.986;2024-01-27T00:38:30;10.88;;;5.70;;
32611;SDS011;19030;49.478;8.986;2024-01-27T00:40:31;13.98;;;6.50;;
32611;SDS011;19030;49.478;8.986;2024-01-27T00:42:31;18.90;;;7.03;;
32611;SDS011;19030;49.478;8.986;2024-01-27T00:44:32;13.20;;;6.25;;
32611;SDS011;19030;49.478;8.986;2024-01-27T00:46:32;12.02;;;6.53;;
32611;SDS011;19030;49.478;8.986;2024-01-27T00:48:33;9.55;;;5.40;;
32611;SDS011;19030;49.478;8.986;2024-01-27T00:50:34;11.55;;;6.10;;
32611;SDS011;19030;49.478;8.986;2024-01-27T00:52:34;14.52;;;6.00;;
32611;SDS011;19030;49.478;8.986;2024-01-27T00:54:35;15.25;;;7.03;;
32611;SDS011;19030;49.478;8.986;2024-01-27T00:56:36;12.35;;;6.03;;
32611;SDS011;19030;49.478;8.986;2024-01-27T00:58:36;14.65;;;6.40;;
32611;SDS011;19030;49.478;8.986;2024-01-27T01:00:37;16.15;;;5.80;;
32611;SDS011;19030;49.478;8.986;2024-01-27T01:02:37;10.55;;;5.07;;
32611;SDS011;19030;49.478;8.986;2024-01-27T01:04:38;14.30;;;5.63;;
32611;SDS011;19030;49.478;8.986;2024-01-27T01:06:39;10.43;;;5.75;;
32611;SDS011;19030;49.478;8.986;2024-01-27T01:08:40;17.67;;;6.50;;
32611;SDS011;19030;49.478;8.986;2024-01-27T01:10:41;12.45;;;5.95;;
32611;SDS011;19030;49.478;8.986;2024-01-27T01:12:41;12.40;;;5.68;;
32611;SDS011;19030;49.478;8.986;2024-01-27T01:14:42;13.27;;;6.28;;
32611;SDS011;19030;49.478;8.986;2024-01-27T01:16:43;12.35;;;5.72;;
32611;SDS011;19030;49.478;8.986;2024-01-27T01:18:44;9.40;;;5.43;;
32611;SDS011;19030;49.478;8.986;2024-01-27T01:20:44;10.85;;;5.60;;
32611;SDS011;19030;49.478;8.986;2024-01-27T01:22:45;9.68;;;5.85;;
32611;SDS011;19030;49.478;8.986;2024-01-27T01:24:46;10.75;;;6.18;;
32611;SDS011;19030;49.478;8.986;2024-01-27T01:26:46;8.35;;;5.00;;
32611;SDS011;19030;49.478;8.986;2024-01-27T01:28:47;9.70;;;5.50;;
32611;SDS011;19030;49.478;8.986;2024-01-27T01:30:47;12.40;;;5.85;;
32611;SDS011;19030;49.478;8.986;2024-01-27T01:32:49;9.38;;;5.75;;
32611;SDS011;19030;49.478;8.986;2024-01-27T01:34:50;10.13;;;5.78;;
32611;SDS011;19030;49.478;8.986;2024-01-27T01:36:51;10.75;;;5.55;;
32611;SDS011;19030;49.478;8.986;2024-01-27T01:38:51;9.60;;;5.82;;
32611;SDS011;19030;49.478;8.986;2024-01-27T01:40:52;10.65;;;5.70;;
32611;SDS011;19030;49.478;8.986;2024-01-27T01:42:53;18.10;;;5.47;;
32611;SDS011;19030;49.478;8.986;2024-01-27T01:44:53;10.10;;;4.93;;
32611;SDS011;19030;49.478;8.986;2024-01-27T01:46:54;9.48;;;4.85;;
32611;SDS011;19030;49.478;8.986;2024-01-27T01:48:54;9.75;;;5.43;;
32611;SDS011;19030;49.478;8.986;2024-01-27T01:50:55;11.05;;;5.93;;
32611;SDS011;19030;49.478;8.986;2024-01-27T01:52:56;10.93;;;5.70;;
32611;SDS011;19030;49.478;8.986;2024-01-27T01:54:57;8.90;;;5.15;;
32611;SDS011;19030;49.478;8.986;2024-01-27T01:56:58;9.85;;;5.22;;
32611;SDS011;19030;49.478;8.986;2024-01-27T01:58:59;8.43;;;5.18;;
32611;SDS011;19030;49.478;8.986;2024-01-27T02:01:00;9.23;;;4.95;;
32611;SDS011;19030;49.478;8.986;2024-01-27T02:03:01;10.88;;;5.70;;
32611;SDS011;19030;49.478;8.986;2024-01-27T02:05:02;8.30;;;4.97;;
32611;SDS011;19030;49.478;8.986;2024-01-27T02:07:03;10.02;;;5.55;;
32611;SDS011;19030;49.478;8.986;2024-01-27T02:09:04;8.50;;;4.70;;
32611;SDS011;19030;49.478;8.986;2024-01-27T02:11:05;10.45;;;4.90;;
32611;SDS011;19030;49.478;8.986;2024-01-27T02:13:21;9.55;;;5.43;;
32611;SDS011;19030;49.478;8.986;2024-01-27T02:15:22;13.68;;;5.97;;
32611;SDS011;19030;49.478;8.986;2024-01-27T02:17:23;10.13;;;5.18;;
32611;SDS011;19030;49.478;8.986;2024-01-27T02:19:24;9.52;;;5.38;;
32611;SDS011;19030;49.478;8.986;2024-01-27T02:21:24;8.90;;;5.15;;
32611;SDS011;19030;49.478;8.986;2024-01-27T02:23:25;8.57;;;5.10;;
32611;SDS011;19030;49.478;8.986;2024-01-27T02:25:25;8.52;;;5.03;;
32611;SDS011;19030;49.478;8.986;2024-01-27T02:27:26;9.65;;;5.35;;
32611;SDS011;19030;49.478;8.986;2024-01-27T02:29:26;9.38;;;5.13;;
32611;SDS011;19030;49.478;8.986;2024-01-27T02:31:28;11.50;;;5.43;;
32611;SDS011;19030;49.478;8.986;2024-01-27T02:33:29;9.02;;;5.75;;
32611;SDS011;19030;49.478;8.986;2024-01-27T02:35:29;10.88;;;5.13;;
32611;SDS011;19030;49.478;8.986;2024-01-27T02:37:30;7.88;;;4.88;;
32611;SDS011;19030;49.478;8.986;2024-01-27T02:39:31;9.93;;;5.13;;
32611;SDS011;19030;49.478;8.986;2024-01-27T02:41:32;8.80;;;5.32;;
32611;SDS011;19030;49.478;8.986;2024-01-27T02:43:38;8.77;;;5.10;;
32611;SDS011;19030;49.478;8.986;2024-01-27T02:45:39;9.98;;;5.88;;
32611;SDS011;19030;49.478;8.986;2024-01-27T02:47:39;11.05;;;4.90;;
32611;SDS011;19030;49.478;8.986;2024-01-27T02:49:40;8.82;;;4.90;;
32611;SDS011;19030;49.478;8.986;2024-01-27T02:51:41;9.93;;;5.05;;
32611;SDS011;19030;49.478;8.986;2024-01-27T02:53:41;9.00;;;4.57;;
32611;SDS011;19030;49.478;8.986;2024-01-27T02:55:42;8.20;;;5.05;;
32611;SDS011;19030;49.478;8.986;2024-01-27T02:57:43;9.65;;;4.82;;
32611;SDS011;19030;49.478;8.986;2024-01-27T02:59:46;9.82;;;5.45;;
32611;SDS011;19030;49.478;8.986;2024-01-27T03:01:47;9.50;;;5.65;;
32611;SDS011;19030;49.478;8.986;2024-01-27T03:03:47;8.52;;;4.53;;
32611;SDS011;19030;49.478;8.986;2024-01-27T03:05:48;8.65;;;5.10;;
32611;SDS011;19030;49.478;8.986;2024-01-27T03:07:48;8.63;;;4.50;;
32611;SDS011;19030;49.478;8.986;2024-01-27T03:09:49;7.40;;;4.63;;
32611;SDS011;19030;49.478;8.986;2024-01-27T03:11:49;10.13;;;4.55;;
32611;SDS011;19030;49.478;8.986;2024-01-27T03:13:50;10.98;;;4.85;;
32611;SDS011;19030;49.478;8.986;2024-01-27T03:15:50;8.40;;;4.95;;
32611;SDS011;19030;49.478;8.986;2024-01-27T03:17:52;10.68;;;5.78;;
32611;SDS011;19030;49.478;8.986;2024-01-27T03:19:52;9.98;;;5.18;;
32611;SDS011;19030;49.478;8.986;2024-01-27T03:21:53;8.15;;;5.03;;
32611;SDS011;19030;49.478;8.986;2024-01-27T03:23:54;8.73;;;4.82;;
32611;SDS011;19030;49.478;8.986;2024-01-27T03:25:54;9.30;;;5.07;;
32611;SDS011;19030;49.478;8.986;2024-01-27T03:27:55;10.65;;;5.40;;
32611;SDS011;19030;49.478;8.986;2024-01-27T03:29:58;10.48;;;5.47;;
32611;SDS011;19030;49.478;8.986;2024-01-27T03:32:00;8.23;;;5.53;;
32611;SDS011;19030;49.478;8.986;2024-01-27T03:34:01;8.10;;;4.90;;
32611;SDS011;19030;49.478;8.986;2024-01-27T03:36:02;10.13;;;5.63;;
32611;SDS011;19030;49.478;8.986;2024-01-27T03:38:03;10.77;;;6.20;;
32611;SDS011;19030;49.478;8.986;2024-01-27T03:40:03;15.52;;;5.35;;
32611;SDS011;19030;49.478;8.986;2024-01-27T03:42:04;8.77;;;5.05;;
32611;SDS011;19030;49.478;8.986;2024-01-27T03:44:05;7.00;;;4.40;;
32611;SDS011;19030;49.478;8.986;2024-01-27T03:46:05;8.35;;;5.00;;
32611;SDS011;19030;49.478;8.986;2024-01-27T03:48:06;8.23;;;4.70;;
32611;SDS011;19030;49.478;8.986;2024-01-27T03:50:07;7.93;;;4.60;;
32611;SDS011;19030;49.478;8.986;2024-01-27T03:52:07;7.90;;;4.68;;
32611;SDS011;19030;49.478;8.986;2024-01-27T03:54:08;8.35;;;4.75;;
32611;SDS011;19030;49.478;8.986;2024-01-27T03:56:11;6.63;;;4.30;;
32611;SDS011;19030;49.478;8.986;2024-01-27T03:58:12;12.20;;;4.47;;
32611;SDS011;19030;49.478;8.986;2024-01-27T04:00:13;7.38;;;4.35;;
32611;SDS011;19030;49.478;8.986;2024-01-27T04:02:14;7.97;;;4.25;;
32611;SDS011;19030;49.478;8.986;2024-01-27T04:04:14;9.00;;;4.53;;
32611;SDS011;19030;49.478;8.986;2024-01-27T04:06:15;6.03;;;4.10;;
32611;SDS011;19030;49.478;8.986;2024-01-27T04:08:15;8.07;;;4.20;;
32611;SDS011;19030;49.478;8.986;2024-01-27T04:10:16;8.07;;;4.45;;
32611;SDS011;19030;49.478;8.986;2024-01-27T04:12:18;7.00;;;4.18;;
32611;SDS011;19030;49.478;8.986;2024-01-27T04:14:18;7.90;;;4.80;;
32611;SDS011;19030;49.478;8.986;2024-01-27T04:16:19;8.20;;;4.65;;
32611;SDS011;19030;49.478;8.986;2024-01-27T04:18:19;9.15;;;4.40;;
32611;SDS011;19030;49.478;8.986;2024-01-27T04:20:20;7.50;;;4.63;;
32611;SDS011;19030;49.478;8.986;2024-01-27T04:22:20;7.07;;;4.50;;
32611;SDS011;19030;49.478;8.986;2024-01-27T04:24:21;8.70;;;4.55;;
32611;SDS011;19030;49.478;8.986;2024-01-27T04:26:22;7.32;;;4.78;;
32611;SDS011;19030;49.478;8.986;2024-01-27T04:28:22;9.27;;;4.72;;
32611;SDS011;19030;49.478;8.986;2024-01-27T04:30:23;9.60;;;4.63;;
32611;SDS011;19030;49.478;8.986;2024-01-27T04:32:24;6.18;;;4.40;;
32611;SDS011;19030;49.478;8.986;2024-01-27T04:34:25;8.43;;;4.40;;
32611;SDS011;19030;49.478;8.986;2024-01-27T04:36:29;6.93;;;4.43;;
32611;SDS011;19030;49.478;8.986;2024-01-27T04:38:29;7.07;;;4.28;;
32611;SDS011;19030;49.478;8.986;2024-01-27T04:40:30;7.35;;;4.53;;
32611;SDS011;19030;49.478;8.986;2024-01-27T04:42:34;12.75;;;4.80;;
32611;SDS011;19030;49.478;8.986;2024-01-27T04:44:35;8.70;;;4.72;;
32611;SDS011;19030;49.478;8.986;2024-01-27T04:46:40;6.97;;;4.20;;
32611;SDS011;19030;49.478;8.986;2024-01-27T04:48:40;8.82;;;4.85;;
32611;SDS011;19030;49.478;8.986;2024-01-27T04:50:41;8.40;;;4.57;;
32611;SDS011;19030;49.478;8.986;2024-01-27T04:52:41;7.72;;;4.32;;
32611;SDS011;19030;49.478;8.986;2024-01-27T04:54:42;6.68;;;4.82;;
32611;SDS011;19030;49.478;8.986;2024-01-27T04:56:43;9.88;;;4.88;;
32611;SDS011;19030;49.478;8.986;2024-01-27T04:58:43;9.02;;;4.97;;
32611;SDS011;19030;49.478;8.986;2024-01-27T05:00:44;6.90;;;4.57;;
32611;SDS011;19030;49.478;8.986;2024-01-27T05:02:44;6.88;;;4.53;;
32611;SDS011;19030;49.478;8.986;2024-01-27T05:04:45;6.38;;;4.13;;
32611;SDS011;19030;49.478;8.986;2024-01-27T05:06:46;6.60;;;4.35;;
32611;SDS011;19030;49.478;8.986;2024-01-27T05:08:46;9.25;;;4.55;;
32611;SDS011;19030;49.478;8.986;2024-01-27T05:10:47;9.80;;;5.28;;
32611;SDS011;19030;49.478;8.986;2024-01-27T05:12:48;6.97;;;5.03;;
32611;SDS011;19030;49.478;8.986;2024-01-27T05:14:48;8.75;;;5.53;;
32611;SDS011;19030;49.478;8.986;2024-01-27T05:16:49;8.73;;;5.18;;
32611;SDS011;19030;49.478;8.986;2024-01-27T05:18:49;7.78;;;4.88;;
32611;SDS011;19030;49.478;8.986;2024-01-27T05:20:50;9.43;;;5.28;;
32611;SDS011;19030;49.478;8.986;2024-01-27T05:22:50;9.90;;;5.90;;
32611;SDS011;19030;49.478;8.986;2024-01-27T05:24:51;8.85;;;5.00;;
32611;SDS011;19030;49.478;8.986;2024-01-27T05:26:52;9.20;;;5.25;;
32611;SDS011;19030;49.478;8.986;2024-01-27T05:28:52;7.25;;;5.15;;
32611;SDS011;19030;49.478;8.986;2024-01-27T05:30:53;6.70;;;4.93;;
32611;SDS011;19030;49.478;8.986;2024-01-27T05:32:53;8.20;;;5.10;;
32611;SDS011;19030;49.478;8.986;2024-01-27T05:34:54;8.40;;;5.55;;
32611;SDS011;19030;49.478;8.986;2024-01-27T05:36:54;9.20;;;5.72;;
32611;SDS011;19030;49.478;8.986;2024-01-27T05:38:55;10.55;;;6.85;;
32611;SDS011;19030;49.478;8.986;2024-01-27T05:40:56;8.38;;;6.15;;
32611;SDS011;19030;49.478;8.986;2024-01-27T05:42:56;7.75;;;5.43;;
32611;SDS011;19030;49.478;8.986;2024-01-27T05:44:57;8.10;;;5.50;;
32611;SDS011;19030;49.478;8.986;2024-01-27T05:46:57;8.52;;;5.28;;
32611;SDS011;19030;49.478;8.986;2024-01-27T05:48:58;6.78;;;4.70;;
32611;SDS011;19030;49.478;8.986;2024-01-27T05:51:01;6.10;;;4.37;;
32611;SDS011;19030;49.478;8.986;2024-01-27T05:53:02;9.32;;;4.95;;
32611;SDS011;19030;49.478;8.986;2024-01-27T05:55:02;6.68;;;4.70;;
32611;SDS011;19030;49.478;8.986;2024-01-27T05:57:06;9.05;;;5.13;;
32611;SDS011;19030;49.478;8.986;2024-01-27T05:59:07;7.53;;;5.10;;
32611;SDS011;19030;49.478;8.986;2024-01-27T06:01:07;8.88;;;5.32;;
32611;SDS011;19030;49.478;8.986;2024-01-27T06:03:09;6.90;;;4.90;;
32611;SDS011;19030;49.478;8.986;2024-01-27T06:05:10;7.32;;;4.90;;
32611;SDS011;19030;49.478;8.986;2024-01-27T06:07:11;6.75;;;4.88;;
32611;SDS011;19030;49.478;8.986;2024-01-27T06:09:11;7.25;;;4.90;;
32611;SDS011;19030;49.478;8.986;2024-01-27T06:11:13;6.95;;;4.43;;
32611;SDS011;19030;49.478;8.986;2024-01-27T06:13:14;6.30;;;4.50;;
32611;SDS011;19030;49.478;8.986;2024-01-27T06:15:15;13.07;;;5.95;;
32611;SDS011;19030;49.478;8.986;2024-01-27T06:17:15;7.95;;;5.03;;
32611;SDS011;19030;49.478;8.986;2024-01-27T06:19:16;8.05;;;4.72;;
32611;SDS011;19030;49.478;8.986;2024-01-27T06:21:18;13.95;;;5.70;;
32611;SDS011;19030;49.478;8.986;2024-01-27T06:23:18;6.88;;;4.82;;
32611;SDS011;19030;49.478;8.986;2024-01-27T06:25:20;13.02;;;6.93;;
32611;SDS011;19030;49.478;8.986;2024-01-27T06:27:21;7.28;;;5.15;;
32611;SDS011;19030;49.478;8.986;2024-01-27T06:29:21;6.78;;;4.60;;
32611;SDS011;19030;49.478;8.986;2024-01-27T06:31:23;11.35;;;4.95;;
32611;SDS011;19030;49.478;8.986;2024-01-27T06:33:23;7.60;;;4.82;;
32611;SDS011;19030;49.478;8.986;2024-01-27T06:35:24;6.82;;;5.28;;
32611;SDS011;19030;49.478;8.986;2024-01-27T06:37:24;8.00;;;4.82;;
32611;SDS011;19030;49.478;8.986;2024-01-27T06:39:25;8.95;;;4.80;;
32611;SDS011;19030;49.478;8.986;2024-01-27T06:41:26;7.05;;;4.88;;
32611;SDS011;19030;49.478;8.986;2024-01-27T06:43:26;9.07;;;4.68;;
32611;SDS011;19030;49.478;8.986;2024-01-27T06:45:27;8.27;;;5.03;;
32611;SDS011;19030;49.478;8.986;2024-01-27T06:47:27;10.70;;;6.22;;
32611;SDS011;19030;49.478;8.986;2024-01-27T06:49:29;11.65;;;6.22;;
32611;SDS011;19030;49.478;8.986;2024-01-27T06:51:29;8.25;;;5.50;;
32611;SDS011;19030;49.478;8.986;2024-01-27T06:53:30;9.80;;;5.43;;
32611;SDS011;19030;49.478;8.986;2024-01-27T06:55:30;9.07;;;5.82;;
32611;SDS011;19030;49.478;8.986;2024-01-27T06:57:31;11.10;;;5.35;;
32611;SDS011;19030;49.478;8.986;2024-01-27T06:59:31;7.70;;;4.97;;
32611;SDS011;19030;49.478;8.986;2024-01-27T07:01:32;6.93;;;4.70;;
32611;SDS011;19030;49.478;8.986;2024-01-27T07:03:32;8.63;;;6.03;;
32611;SDS011;19030;49.478;8.986;2024-01-27T07:05:33;7.55;;;5.00;;
32611;SDS011;19030;49.478;8.986;2024-01-27T07:07:38;19.25;;;5.35;;
32611;SDS011;19030;49.478;8.986;2024-01-27T07:09:39;8.32;;;5.40;;
32611;SDS011;19030;49.478;8.986;2024-01-27T07:11:39;9.50;;;5.25;;
32611;SDS011;19030;49.478;8.986;2024-01-27T07:13:41;7.30;;;5.20;;
32611;SDS011;19030;49.478;8.986;2024-01-27T07:15:41;7.47;;;4.97;;
32611;SDS011;19030;49.478;8.986;2024-01-27T07:17:42;9.27;;;4.88;;
32611;SDS011;19030;49.478;8.986;2024-01-27T07:19:43;10.88;;;5.32;;
32611;SDS011;19030;49.478;8.986;2024-01-27T07:21:43;11.50;;;5.60;;
32611;SDS011;19030;49.478;8.986;2024-01-27T07:23:44;7.43;;;5.28;;
32611;SDS011;19030;49.478;8.986;2024-01-27T07:25:44;8.05;;;4.95;;
32611;SDS011;19030;49.478;8.986;2024-01-27T07:27:45;10.88;;;4.63;;
32611;SDS011;19030;49.478;8.986;2024-01-27T07:29:46;8.40;;;5.50;;
32611;SDS011;19030;49.478;8.986;2024-01-27T07:31:47;9.10;;;4.78;;
32611;SDS011;19030;49.478;8.986;2024-01-27T07:33:48;7.50;;;4.72;;
32611;SDS011;19030;49.478;8.986;2024-01-27T07:35:48;9.30;;;5.63;;
32611;SDS011;19030;49.478;8.986;2024-01-27T07:37:49;10.27;;;4.90;;
32611;SDS011;19030;49.478;8.986;2024-01-27T07:39:50;8.52;;;5.30;;
32611;SDS011;19030;49.478;8.986;2024-01-27T07:41:50;10.70;;;5.55;;
32611;SDS011;19030;49.478;8.986;2024-01-27T07:43:51;8.13;;;4.55;;
32611;SDS011;19030;49.478;8.986;2024-01-27T07:45:51;7.82;;;4.70;;
32611;SDS011;19030;49.478;8.986;2024-01-27T07:47:52;8.18;;;4.88;;
32611;SDS011;19030;49.478;8.986;2024-01-27T07:49:53;9.30;;;4.70;;
32611;SDS011;19030;49.478;8.986;2024-01-27T07:51:54;7.22;;;4.65;;
32611;SDS011;19030;49.478;8.986;2024-01-27T07:53:55;7.35;;;4.68;;
32611;SDS011;19030;49.478;8.986;2024-01-27T07:55:55;8.10;;;5.15;;
32611;SDS011;19030;49.478;8.986;2024-01-27T07:57:56;12.05;;;6.72;;
32611;SDS011;19030;49.478;8.986;2024-01-27T07:59:56;8.63;;;4.93;;
32611;SDS011;19030;49.478;8.986;2024-01-27T08:01:58;7.40;;;5.05;;
32611;SDS011;19030;49.478;8.986;2024-01-27T08:03:59;18.55;;;7.80;;
32611;SDS011;19030;49.478;8.986;2024-01-27T08:06:03;17.80;;;7.80;;
32611;SDS011;19030;49.478;8.986;2024-01-27T08:08:05;9.00;;;5.40;;
32611;SDS011;19030;49.478;8.986;2024-01-27T08:10:05;11.63;;;5.57;;
32611;SDS011;19030;49.478;8.986;2024-01-27T08:12:06;6.90;;;4.65;;
32611;SDS011;19030;49.478;8.986;2024-01-27T08:14:07;7.75;;;4.30;;
32611;SDS011;19030;49.478;8.986;2024-01-27T08:16:08;12.20;;;4.97;;
32611;SDS011;19030;49.478;8.986;2024-01-27T08:18:09;10.05;;;4.40;;
32611;SDS011;19030;49.478;8.986;2024-01-27T08:20:10;7.20;;;4.65;;
32611;SDS011;19030;49.478;8.986;2024-01-27T08:22:11;8.18;;;4.68;;
32611;SDS011;19030;49.478;8.986;2024-01-27T08:24:11;8.88;;;4.95;;
32611;SDS011;19030;49.478;8.986;2024-01-27T08:26:13;8.07;;;4.97;;
32611;SDS011;19030;49.478;8.986;2024-01-27T08:28:14;7.88;;;4.90;;
32611;SDS011;19030;49.478;8.986;2024-01-27T08:30:14;7.25;;;4.78;;
32611;SDS011;19030;49.478;8.986;2024-01-27T08:32:15;10.65;;;4.90;;
32611;SDS011;19030;49.478;8.986;2024-01-27T08:34:15;7.10;;;4.35;;
32611;SDS011;19030;49.478;8.986;2024-01-27T08:36:16;7.15;;;4.88;;
32611;SDS011;19030;49.478;8.986;2024-01-27T08:38:16;8.82;;;4.60;;
32611;SDS011;19030;49.478;8.986;2024-01-27T08:40:17;6.90;;;4.50;;
32611;SDS011;19030;49.478;8.986;2024-01-27T08:42:18;8.13;;;4.70;;
32611;SDS011;19030;49.478;8.986;2024-01-27T08:44:18;8.43;;;4.28;;
32611;SDS011;19030;49.478;8.986;2024-01-27T08:46:20;10.75;;;5.22;;
32611;SDS011;19030;49.478;8.986;2024-01-27T08:48:22;5.78;;;4.50;;
32611;SDS011;19030;49.478;8.986;2024-01-27T08:50:22;6.63;;;4.35;;
32611;SDS011;19030;49.478;8.986;2024-01-27T08:52:23;8.82;;;4.95;;
32611;SDS011;19030;49.478;8.986;2024-01-27T08:54:23;7.85;;;4.40;;
32611;SDS011;19030;49.478;8.986;2024-01-27T08:56:24;15.23;;;4.53;;
32611;SDS011;19030;49.478;8.986;2024-01-27T08:58:25;8.57;;;5.63;;
32611;SDS011;19030;49.478;8.986;2024-01-27T09:00:25;6.68;;;4.45;;
32611;SDS011;19030;49.478;8.986;2024-01-27T09:02:26;8.02;;;4.53;;
32611;SDS011;19030;49.478;8.986;2024-01-27T09:04:26;6.88;;;4.00;;
32611;SDS011;19030;49.478;8.986;2024-01-27T09:06:27;9.75;;;4.40;;
32611;SDS011;19030;49.478;8.986;2024-01-27T09:08:28;7.90;;;4.55;;
32611;SDS011;19030;49.478;8.986;2024-01-27T09:10:28;8.52;;;4.60;;
32611;SDS011;19030;49.478;8.986;2024-01-27T09:12:29;6.60;;;4.20;;
32611;SDS011;19030;49.478;8.986;2024-01-27T09:14:29;10.68;;;5.68;;
32611;SDS011;19030;49.478;8.986;2024-01-27T09:16:30;8.90;;;4.95;;
32611;SDS011;19030;49.478;8.986;2024-01-27T09:18:30;11.32;;;5.45;;
32611;SDS011;19030;49.478;8.986;2024-01-27T09:20:31;13.32;;;5.63;;
32611;SDS011;19030;49.478;8.986;2024-01-27T09:22:32;9.43;;;5.38;;
32611;SDS011;19030;49.478;8.986;2024-01-27T09:24:33;13.73;;;6.18;;
32611;SDS011;19030;49.478;8.986;2024-01-27T09:26:33;9.60;;;5.63;;
32611;SDS011;19030;49.478;8.986;2024-01-27T09:28:34;13.77;;;5.28;;
32611;SDS011;19030;49.478;8.986;2024-01-27T09:30:34;9.05;;;5.32;;
32611;SDS011;19030;49.478;8.986;2024-01-27T09:32:35;9.95;;;5.25;;
32611;SDS011;19030;49.478;8.986;2024-01-27T09:34:36;9.95;;;5.25;;
32611;SDS011;19030;49.478;8.986;2024-01-27T09:36:36;9.15;;;5.15;;
32611;SDS011;19030;49.478;8.986;2024-01-27T09:38:37;13.23;;;6.20;;
32611;SDS011;19030;49.478;8.986;2024-01-27T09:40:37;12.55;;;5.63;;
32611;SDS011;19030;49.478;8.986;2024-01-27T09:42:38;11.18;;;6.03;;
32611;SDS011;19030;49.478;8.986;2024-01-27T09:44:42;9.07;;;5.20;;
32611;SDS011;19030;49.478;8.986;2024-01-27T09:46:45;9.55;;;5.60;;
32611;SDS011;19030;49.478;8.986;2024-01-27T09:48:47;9.77;;;5.72;;
32611;SDS011;19030;49.478;8.986;2024-01-27T09:50:48;8.73;;;5.40;;
32611;SDS011;19030;49.478;8.986;2024-01-27T09:52:50;8.75;;;5.93;;
32611;SDS011;19030;49.478;8.986;2024-01-27T09:54:51;8.75;;;5.13;;
32611;SDS011;19030;49.478;8.986;2024-01-27T09:56:52;12.32;;;6.18;;
32611;SDS011;19030;49.478;8.986;2024-01-27T09:58:54;9.77;;;5.93;;
32611;SDS011;19030;49.478;8.986;2024-01-27T10:00:58;8.98;;;4.88;;
32611;SDS011;19030;49.478;8.986;2024-01-27T10:03:00;7.18;;;4.35;;
32611;SDS011;19030;49.478;8.986;2024-01-27T10:05:02;10.77;;;5.82;;
32611;SDS011;19030;49.478;8.986;2024-01-27T10:07:04;10.32;;;5.63;;
32611;SDS011;19030;49.478;8.986;2024-01-27T10:09:05;13.75;;;5.47;;
32611;SDS011;19030;49.478;8.986;2024-01-27T10:11:08;10.85;;;6.30;;
32611;SDS011;19030;49.478;8.986;2024-01-27T10:13:09;10.18;;;6.15;;
32611;SDS011;19030;49.478;8.986;2024-01-27T10:15:20;11.85;;;7.10;;
32611;SDS011;19030;49.478;8.986;2024-01-27T10:17:21;7.90;;;5.70;;
32611;SDS011;19030;49.478;8.986;2024-01-27T10:19:23;13.05;;;7.03;;
32611;SDS011;19030;49.478;8.986;2024-01-27T10:21:23;10.75;;;6.95;;
32611;SDS011;19030;49.478;8.986;2024-01-27T10:23:26;9.82;;;6.10;;
32611;SDS011;19030;49.478;8.986;2024-01-27T10:25:27;12.05;;;6.78;;
32611;SDS011;19030;49.478;8.986;2024-01-27T10:27:27;15.70;;;14.30;;
32611;SDS011;19030;49.478;8.986;2024-01-27T10:29:28;15.80;;;14.38;;
32611;SDS011;19030;49.478;8.986;2024-01-27T10:31:30;11.23;;;5.90;;
32611;SDS011;19030;49.478;8.986;2024-01-27T10:33:33;10.90;;;7.22;;
32611;SDS011;19030;49.478;8.986;2024-01-27T10:35:33;10.98;;;6.93;;
32611;SDS011;19030;49.478;8.986;2024-01-27T10:37:34;11.73;;;7.10;;
32611;SDS011;19030;49.478;8.986;2024-01-27T10:39:35;13.48;;;7.88;;
32611;SDS011;19030;49.478;8.986;2024-01-27T10:41:36;13.00;;;7.70;;
32611;SDS011;19030;49.478;8.986;2024-01-27T10:43:39;10.38;;;6.80;;
32611;SDS011;19030;49.478;8.986;2024-01-27T10:45:40;10.60;;;6.35;;
32611;SDS011;19030;49.478;8.986;2024-01-27T10:47:41;12.45;;;7.15;;
32611;SDS011;19030;49.478;8.986;2024-01-27T10:49:43;9.90;;;6.60;;
32611;SDS011;19030;49.478;8.986;2024-01-27T10:51:53;12.60;;;6.82;;
32611;SDS011;19030;49.478;8.986;2024-01-27T10:53:55;19.30;;;15.57;;
32611;SDS011;19030;49.478;8.986;2024-01-27T10:56:06;17.77;;;16.02;;
32611;SDS011;19030;49.478;8.986;2024-01-27T10:58:09;17.35;;;15.70;;
32611;SDS011;19030;49.478;8.986;2024-01-27T11:00:12;18.95;;;16.48;;
32611;SDS011;19030;49.478;8.986;2024-01-27T11:02:14;20.50;;;18.55;;
32611;SDS011;19030;49.478;8.986;2024-01-27T11:04:15;18.25;;;16.48;;
32611;SDS011;19030;49.478;8.986;2024-01-27T11:06:17;23.40;;;21.25;;
32611;SDS011;19030;49.478;8.986;2024-01-27T11:08:19;17.10;;;15.30;;
32611;SDS011;19030;49.478;8.986;2024-01-27T11:10:20;13.43;;;11.18;;
32611;SDS011;19030;49.478;8.986;2024-01-27T11:12:21;13.18;;;8.43;;
32611;SDS011;19030;49.478;8.986;2024-01-27T11:14:22;13.30;;;10.77;;
32611;SDS011;19030;49.478;8.986;2024-01-27T11:16:23;11.10;;;8.00;;
32611;SDS011;19030;49.478;8.986;2024-01-27T11:18:24;11.13;;;7.70;;
32611;SDS011;19030;49.478;8.986;2024-01-27T11:20:25;10.98;;;7.25;;
32611;SDS011;19030;49.478;8.986;2024-01-27T11:24:27;10.60;;;7.57;;
32611;SDS011;19030;49.478;8.986;2024-01-27T11:26:28;13.65;;;8.13;;
32611;SDS011;19030;49.478;8.986;2024-01-27T11:28:28;9.43;;;7.45;;
32611;SDS011;19030;49.478;8.986;2024-01-27T11:30:30;11.52;;;8.32;;
32611;SDS011;19030;49.478;8.986;2024-01-27T11:32:36;13.15;;;7.75;;
32611;SDS011;19030;49.478;8.986;2024-01-27T11:34:46;12.45;;;8.43;;
32611;SDS011;19030;49.478;8.986;2024-01-27T11:36:47;10.95;;;8.20;;
32611;SDS011;19030;49.478;8.986;2024-01-27T11:38:48;14.38;;;9.48;;
32611;SDS011;19030;49.478;8.986;2024-01-27T11:40:50;11.82;;;8.63;;
32611;SDS011;19030;49.478;8.986;2024-01-27T11:42:57;10.68;;;8.05;;
32611;SDS011;19030;49.478;8.986;2024-01-27T11:44:59;11.32;;;8.15;;
32611;SDS011;19030;49.478;8.986;2024-01-27T11:47:00;10.75;;;8.55;;
32611;SDS011;19030;49.478;8.986;2024-01-27T11:49:00;12.63;;;7.97;;
32611;SDS011;19030;49.478;8.986;2024-01-27T11:51:05;11.60;;;8.40;;
32611;SDS011;19030;49.478;8.986;2024-01-27T11:53:08;10.95;;;8.50;;
32611;SDS011;19030;49.478;8.986;2024-01-27T11:55:09;9.13;;;8.07;;
32611;SDS011;19030;49.478;8.986;2024-01-27T11:57:10;10.93;;;8.75;;
32611;SDS011;19030;49.478;8.986;2024-01-27T11:59:10;11.45;;;9.07;;
32611;SDS011;19030;49.478;8.986;2024-01-27T12:01:11;10.75;;;8.68;;
32611;SDS011;19030;49.478;8.986;2024-01-27T12:03:11;9.70;;;8.20;;
32611;SDS011;19030;49.478;8.986;2024-01-27T12:05:12;9.55;;;8.18;;